Antioch, Illinois
Current Conditions -  °F | °C
As of 11:53 PM on Tuesday 25 Nov 2014 (Local Time) from KENW Reporting Station
Haze Haze  
Wind Chill: -11°   Ceiling: Unl
Heat Index: -11°   Visibility: 5mi
Dew Point: -12°   Wind: 0mph
Humidity: 92%   Direction: NA
Pressure: 30.18"   Gusts: NA
Location:  42.48°N, 88.1°W
Report Text: KENW 260553Z AUTO 00000KT 5SM BR CLR M11/M12 A3018 RMK AO2 SLP235 I1000 I6000 T11061117 11056 21106 410391106 51006
Loading
Personal Weather Stations






























Interactive Weather Map New forecast layout! Learn more

10-Day Weather Forecast

Advertisements
Track Severe Weather on mobile